createdAt,value
2016-12-29T00:00:04.648Z,8.15
2016-12-29T00:01:38.547Z,8.11
2016-12-29T00:03:12.059Z,8.09
2016-12-29T00:04:45.836Z,8.08
2016-12-29T00:06:19.853Z,8.07
2016-12-29T00:07:54.180Z,8.07
2016-12-29T00:09:28.203Z,8.07
2016-12-29T00:11:01.785Z,8.04
2016-12-29T00:12:35.931Z,8.05
2016-12-29T00:14:09.585Z,8.02
2016-12-29T00:15:43.700Z,7.96
2016-12-29T00:17:18.045Z,7.95
2016-12-29T00:19:11.232Z,7.97
2016-12-29T00:20:45.426Z,7.97
2016-12-29T00:22:19.300Z,7.96
2016-12-29T00:23:49.821Z,7.95
2016-12-29T00:25:04.018Z,7.96
2016-12-29T00:26:57.345Z,7.98
2016-12-29T00:28:31.282Z,8.01
2016-12-29T00:30:04.658Z,8.01
2016-12-29T00:31:38.251Z,7.99
2016-12-29T00:33:12.149Z,7.95
2016-12-29T00:34:45.439Z,7.9
2016-12-29T00:36:18.720Z,7.88
2016-12-29T00:37:52.006Z,7.86
2016-12-29T00:39:26.760Z,7.83
2016-12-29T00:41:00.590Z,7.75
2016-12-29T00:42:34.721Z,7.66
2016-12-29T00:44:08.054Z,7.58
2016-12-29T00:45:41.813Z,7.49
2016-12-29T00:47:15.646Z,7.4
2016-12-29T00:49:10.999Z,7.31
2016-12-29T00:50:44.841Z,7.21
2016-12-29T00:52:18.867Z,7.1
2016-12-29T00:53:53.303Z,7.02
2016-12-29T00:55:27.983Z,6.94
2016-12-29T00:57:03.554Z,6.85
2016-12-29T00:58:37.169Z,6.77
2016-12-29T01:00:10.731Z,6.69
2016-12-29T01:01:44.415Z,6.64
2016-12-29T01:03:37.898Z,6.57
2016-12-29T01:05:11.404Z,6.47
2016-12-29T01:06:43.404Z,6.37
2016-12-29T01:08:16.748Z,6.3
2016-12-29T01:09:50.626Z,6.18
2016-12-29T01:11:24.127Z,6.11
2016-12-29T01:12:58.006Z,6.05
2016-12-29T01:14:32.135Z,6.02
2016-12-29T01:16:05.709Z,5.98
2016-12-29T01:17:39.434Z,5.93
2016-12-29T01:19:12.707Z,5.88
2016-12-29T01:20:46.702Z,5.83
2016-12-29T01:22:20.273Z,5.76
2016-12-29T01:23:54.224Z,5.71
2016-12-29T01:25:27.761Z,5.65
2016-12-29T01:27:00.999Z,5.6
2016-12-29T01:28:34.536Z,5.53
2016-12-29T01:30:02.998Z,5.5
2016-12-29T01:31:32.297Z,5.46
2016-12-29T01:33:05.593Z,5.42
2016-12-29T01:34:39.164Z,5.38
2016-12-29T01:36:12.721Z,5.34
2016-12-29T01:37:46.083Z,5.31
2016-12-29T01:39:20.286Z,5.3
2016-12-29T01:40:53.808Z,5.27
2016-12-29T01:42:27.406Z,5.24
2016-12-29T01:44:28.168Z,5.2
2016-12-29T01:46:01.433Z,5.13
2016-12-29T01:47:35.034Z,5.07
2016-12-29T01:49:09.025Z,4.98
2016-12-29T01:50:42.724Z,4.93
2016-12-29T01:52:16.043Z,4.85
2016-12-29T01:53:49.479Z,4.8
2016-12-29T01:55:23.660Z,4.74
2016-12-29T01:56:56.945Z,4.69
2016-12-29T01:58:30.202Z,4.65
2016-12-29T01:59:58.660Z,4.63
2016-12-29T02:01:32.274Z,4.58
2016-12-29T02:03:05.761Z,4.55
2016-12-29T02:04:39.036Z,4.52
2016-12-29T02:06:12.803Z,4.47
2016-12-29T02:07:41.427Z,4.42
2016-12-29T02:09:14.739Z,4.38
2016-12-29T02:10:48.245Z,4.34
2016-12-29T02:12:22.074Z,4.33
2016-12-29T02:13:55.391Z,4.33
2016-12-29T02:15:28.929Z,4.33
2016-12-29T02:17:02.678Z,4.34
2016-12-29T02:18:36.167Z,4.34
2016-12-29T02:20:09.594Z,4.32
2016-12-29T02:21:43.343Z,4.28
2016-12-29T02:23:17.083Z,4.24
2016-12-29T02:24:50.643Z,4.2
2016-12-29T02:26:23.880Z,4.15
2016-12-29T02:27:57.114Z,4.11
2016-12-29T02:29:30.592Z,4.08
2016-12-29T02:31:04.385Z,4.05
2016-12-29T02:32:37.667Z,4.01
2016-12-29T02:34:13.185Z,3.95
2016-12-29T02:35:46.679Z,3.9
2016-12-29T02:37:40.131Z,3.85
2016-12-29T02:39:13.453Z,3.79
2016-12-29T02:40:46.749Z,3.73
2016-12-29T02:42:20.047Z,3.68
2016-12-29T02:43:53.611Z,3.63
2016-12-29T02:45:27.144Z,3.58
2016-12-29T02:47:00.943Z,3.57
2016-12-29T02:48:34.192Z,3.56
2016-12-29T02:50:08.377Z,3.54
2016-12-29T02:51:41.937Z,3.54
2016-12-29T02:53:16.843Z,3.55
2016-12-29T02:54:50.173Z,3.56
2016-12-29T02:56:23.449Z,3.57
2016-12-29T02:57:57.978Z,3.62
2016-12-29T02:59:31.696Z,3.71
2016-12-29T03:01:05.167Z,3.82
2016-12-29T03:02:38.659Z,3.93
2016-12-29T03:04:12.204Z,4.04
2016-12-29T03:06:04.760Z,4.14
2016-12-29T03:07:38.488Z,4.24
2016-12-29T03:09:12.241Z,4.32
2016-12-29T03:10:45.782Z,4.39
2016-12-29T03:12:19.296Z,4.45
2016-12-29T03:13:52.525Z,4.52
2016-12-29T03:15:26.380Z,4.57
2016-12-29T03:17:00.218Z,4.55
2016-12-29T03:18:33.745Z,4.55
2016-12-29T03:20:06.998Z,4.55
2016-12-29T03:21:40.305Z,4.55
2016-12-29T03:23:14.092Z,4.56
2016-12-29T03:24:47.389Z,4.59
2016-12-29T03:26:21.546Z,4.59
2016-12-29T03:27:54.851Z,4.6
2016-12-29T03:29:28.486Z,4.6
2016-12-29T03:31:01.774Z,4.6
2016-12-29T03:32:35.295Z,4.6
2016-12-29T03:34:36.377Z,4.58
2016-12-29T03:36:09.902Z,4.58
2016-12-29T03:37:43.404Z,4.59
2016-12-29T03:39:17.050Z,4.6
2016-12-29T03:40:50.330Z,4.62
2016-12-29T03:42:24.125Z,4.66
2016-12-29T03:43:57.435Z,4.68
2016-12-29T03:45:31.070Z,4.68
2016-12-29T03:47:04.666Z,4.7
2016-12-29T03:48:38.161Z,4.74
2016-12-29T03:50:30.621Z,4.78
2016-12-29T03:52:04.644Z,4.85
2016-12-29T03:53:38.317Z,4.89
2016-12-29T03:55:11.808Z,4.92
2016-12-29T03:56:45.703Z,4.93
2016-12-29T03:58:19.454Z,4.95
2016-12-29T03:59:53.526Z,4.96
2016-12-29T04:01:27.179Z,4.97
2016-12-29T04:03:00.960Z,4.95
2016-12-29T04:04:34.321Z,4.92
2016-12-29T04:06:03.464Z,4.87
2016-12-29T04:07:37.207Z,4.82
2016-12-29T04:09:10.492Z,4.82
2016-12-29T04:10:43.758Z,4.82
2016-12-29T04:12:20.603Z,4.84
2016-12-29T04:13:54.101Z,4.84
2016-12-29T04:15:27.409Z,4.82
2016-12-29T04:17:00.876Z,4.76
2016-12-29T04:18:34.379Z,4.69
2016-12-29T04:20:07.950Z,4.67
2016-12-29T04:21:41.284Z,4.63
2016-12-29T04:23:14.553Z,4.61
2016-12-29T04:25:07.568Z,4.58
2016-12-29T04:26:41.446Z,4.55
2016-12-29T04:28:14.980Z,4.51
2016-12-29T04:29:48.302Z,4.48
2016-12-29T04:31:21.864Z,4.47
2016-12-29T04:32:55.949Z,4.45
2016-12-29T04:34:29.551Z,4.43
2016-12-29T04:36:03.474Z,4.43
2016-12-29T04:38:02.640Z,4.4
2016-12-29T04:39:42.191Z,4.35
2016-12-29T04:41:39.718Z,4.32
2016-12-29T04:43:17.613Z,4.3
2016-12-29T04:44:53.550Z,4.25
2016-12-29T04:46:28.376Z,4.25
2016-12-29T04:48:01.894Z,4.24
2016-12-29T04:49:35.252Z,4.26
2016-12-29T04:51:28.550Z,4.26
2016-12-29T04:53:03.110Z,4.26
2016-12-29T04:54:36.639Z,4.25
2016-12-29T04:56:10.177Z,4.26
2016-12-29T04:57:43.476Z,4.26
2016-12-29T04:59:17.192Z,4.26
2016-12-29T05:00:50.534Z,4.27
2016-12-29T05:02:24.459Z,4.27
2016-12-29T05:03:58.852Z,4.21
2016-12-29T05:05:32.124Z,4.15
2016-12-29T05:07:05.667Z,4.09
2016-12-29T05:08:39.194Z,4.03
2016-12-29T05:10:12.730Z,3.97
2016-12-29T05:11:46.229Z,3.93
2016-12-29T05:13:19.506Z,3.87
2016-12-29T05:14:53.104Z,3.82
2016-12-29T05:16:26.719Z,3.8
2016-12-29T05:18:00.013Z,3.8
2016-12-29T05:19:33.951Z,3.78
2016-12-29T05:21:26.750Z,3.78
2016-12-29T05:23:00.697Z,3.77
2016-12-29T05:24:34.180Z,3.73
2016-12-29T05:26:07.732Z,3.75
2016-12-29T05:27:41.736Z,3.76
2016-12-29T05:29:15.652Z,3.77
2016-12-29T05:30:49.307Z,3.76
2016-12-29T05:32:17.993Z,3.75
2016-12-29T05:33:51.552Z,3.71
2016-12-29T05:35:24.802Z,3.69
2016-12-29T05:36:58.040Z,3.68
2016-12-29T05:38:34.012Z,3.69
2016-12-29T05:40:07.564Z,3.67
2016-12-29T05:41:41.032Z,3.66
2016-12-29T05:43:15.068Z,3.67
2016-12-29T05:44:48.422Z,3.67
2016-12-29T05:46:22.220Z,3.69
2016-12-29T05:47:55.695Z,3.69
2016-12-29T05:49:29.520Z,3.69
2016-12-29T05:51:05.345Z,3.69
2016-12-29T05:52:34.886Z,3.66
2016-12-29T05:54:08.211Z,3.63
2016-12-29T05:55:42.564Z,3.61
2016-12-29T05:57:16.204Z,3.59
2016-12-29T05:58:50.149Z,3.58
2016-12-29T06:00:18.353Z,3.58
2016-12-29T06:01:51.710Z,3.57
2016-12-29T06:03:25.002Z,3.59
2016-12-29T06:04:58.940Z,3.61
2016-12-29T06:06:32.632Z,3.62
2016-12-29T06:08:05.996Z,3.61
2016-12-29T06:09:39.307Z,3.6
2016-12-29T06:11:13.373Z,3.6
2016-12-29T06:12:46.707Z,3.58
2016-12-29T06:14:20.114Z,3.56
2016-12-29T06:15:53.416Z,3.57
2016-12-29T06:17:47.507Z,3.56
2016-12-29T06:19:21.034Z,3.51
2016-12-29T06:20:54.604Z,3.48
2016-12-29T06:22:27.904Z,3.43
2016-12-29T06:24:01.414Z,3.39
2016-12-29T06:25:34.936Z,3.38
2016-12-29T06:27:08.559Z,3.35
2016-12-29T06:28:42.383Z,3.3
2016-12-29T06:30:15.911Z,3.27
2016-12-29T06:31:49.246Z,3.22
2016-12-29T06:33:22.474Z,3.19
2016-12-29T06:34:56.295Z,3.16
2016-12-29T06:36:30.284Z,3.14
2016-12-29T06:38:03.614Z,3.12
2016-12-29T06:39:36.922Z,3.11
2016-12-29T06:41:10.381Z,3.11
2016-12-29T06:42:44.240Z,3.09
2016-12-29T06:44:17.505Z,3.07
2016-12-29T06:45:50.861Z,3.05
2016-12-29T06:47:24.228Z,3.04
2016-12-29T06:48:52.978Z,3.06
2016-12-29T06:50:26.633Z,3.05
2016-12-29T06:51:59.998Z,3.05
2016-12-29T06:53:34.156Z,3.05
2016-12-29T06:56:37.310Z,3.04
2016-12-29T06:58:10.620Z,3.07
2016-12-29T06:59:44.349Z,3.1
2016-12-29T07:01:18.317Z,3.13
2016-12-29T07:13:09.980Z,3.27
2016-12-29T07:14:44.232Z,3.26
2016-12-29T07:16:18.184Z,3.22
2016-12-29T07:17:51.724Z,3.18
2016-12-29T07:19:25.261Z,3.17
2016-12-29T07:20:59.013Z,3.18
2016-12-29T07:22:51.771Z,3.18
2016-12-29T07:24:25.725Z,3.15
2016-12-29T07:25:58.997Z,3.13
2016-12-29T07:27:34.548Z,3.14
2016-12-29T07:29:08.064Z,3.1
2016-12-29T07:30:42.022Z,3.11
2016-12-29T07:32:16.100Z,3.11
2016-12-29T07:33:49.895Z,3.09
2016-12-29T07:35:23.163Z,3.11
2016-12-29T07:36:56.863Z,3.11
2016-12-29T07:38:30.791Z,3.11
2016-12-29T07:40:04.549Z,3.12
2016-12-29T07:41:37.812Z,3.12
2016-12-29T07:43:11.536Z,3.08
2016-12-29T07:44:45.628Z,3.05
2016-12-29T07:46:19.137Z,3.06
2016-12-29T07:47:52.480Z,3.1
2016-12-29T07:49:26.130Z,3.16
2016-12-29T07:50:59.895Z,3.19
2016-12-29T07:52:33.430Z,3.22
2016-12-29T07:54:06.704Z,3.24
2016-12-29T07:55:40.328Z,3.26
2016-12-29T07:57:34.567Z,3.27
2016-12-29T07:59:08.048Z,3.32
2016-12-29T08:00:41.370Z,3.36
2016-12-29T08:02:14.920Z,3.39
2016-12-29T08:03:48.737Z,3.44
2016-12-29T08:05:22.263Z,3.44
2016-12-29T08:06:58.223Z,3.5
2016-12-29T08:08:32.365Z,3.52
2016-12-29T08:10:05.637Z,3.55
2016-12-29T08:11:39.114Z,3.55
2016-12-29T08:13:13.933Z,3.52
2016-12-29T08:15:08.538Z,3.45
2016-12-29T08:16:42.988Z,3.41
2016-12-29T08:18:17.954Z,3.37
2016-12-29T08:19:53.348Z,3.38
2016-12-29T08:21:28.733Z,3.39
2016-12-29T08:23:23.462Z,3.4
2016-12-29T08:24:59.917Z,3.45
2016-12-29T08:26:36.981Z,3.49
2016-12-29T08:28:12.321Z,3.5
2016-12-29T08:29:46.010Z,3.54
2016-12-29T08:31:19.377Z,3.6
2016-12-29T08:33:12.909Z,3.64
2016-12-29T08:34:46.488Z,3.68
2016-12-29T08:36:20.231Z,3.74
2016-12-29T08:37:53.782Z,3.79
2016-12-29T08:39:27.051Z,3.84
2016-12-29T08:41:00.560Z,3.9
2016-12-29T08:42:34.058Z,3.94
2016-12-29T08:44:09.933Z,3.97
2016-12-29T08:45:43.728Z,4.01
2016-12-29T08:47:17.027Z,4.04
2016-12-29T08:48:50.587Z,4.08
2016-12-29T08:50:23.931Z,4.12
2016-12-29T08:51:57.475Z,4.2
2016-12-29T08:53:30.783Z,4.27
2016-12-29T08:55:04.289Z,4.36
2016-12-29T08:56:37.571Z,4.45
2016-12-29T08:58:11.352Z,4.53
2016-12-29T09:00:03.999Z,4.59
2016-12-29T09:01:37.527Z,4.64
2016-12-29T09:03:11.167Z,4.69
2016-12-29T09:04:45.092Z,4.71
2016-12-29T09:06:21.552Z,4.74
2016-12-29T09:07:54.969Z,4.77
2016-12-29T09:09:28.756Z,4.82
2016-12-29T09:11:02.623Z,4.87
2016-12-29T09:12:36.004Z,4.9
2016-12-29T09:14:09.484Z,4.95
2016-12-29T09:15:43.030Z,4.97
2016-12-29T09:17:11.537Z,4.98
2016-12-29T09:18:45.333Z,5
2016-12-29T09:20:18.553Z,5.01
2016-12-29T09:21:52.801Z,5.1
2016-12-29T09:23:26.180Z,5.33
2016-12-29T09:25:00.458Z,5.5
2016-12-29T09:26:33.718Z,5.6
2016-12-29T09:28:06.971Z,5.56
2016-12-29T09:29:40.470Z,5.4
2016-12-29T09:31:14.265Z,5.31
2016-12-29T09:33:46.552Z,5.3
2016-12-29T09:36:16.773Z,5.3
2016-12-29T09:37:51.815Z,5.29
2016-12-29T09:39:26.140Z,5.27
2016-12-29T09:40:59.686Z,5.28
2016-12-29T09:42:32.964Z,5.29
2016-12-29T09:44:39.139Z,5.32
2016-12-29T09:47:13.241Z,5.39
2016-12-29T09:49:14.045Z,5.42
2016-12-29T09:51:14.835Z,5.43
2016-12-29T09:52:51.609Z,5.47
2016-12-29T09:55:22.807Z,5.44
2016-12-29T09:57:33.677Z,5.45
2016-12-29T09:59:07.572Z,5.43
2016-12-29T10:01:38.774Z,5.39
2016-12-29T10:03:40.870Z,5.43
2016-12-29T10:05:14.933Z,5.47
2016-12-29T10:06:48.878Z,5.48
2016-12-29T10:08:22.143Z,5.49
2016-12-29T10:10:00.382Z,5.52
2016-12-29T10:12:27.601Z,5.5
2016-12-29T10:14:28.693Z,5.52
2016-12-29T10:16:02.402Z,5.55
2016-12-29T10:17:36.000Z,5.58
2016-12-29T10:19:15.385Z,5.61
2016-12-29T10:21:20.732Z,5.67
2016-12-29T10:23:16.012Z,5.68
2016-12-29T10:24:54.034Z,5.73
2016-12-29T10:27:24.428Z,5.74
2016-12-29T10:29:02.217Z,5.79
2016-12-29T10:31:08.799Z,5.83
2016-12-29T10:33:17.256Z,5.91
2016-12-29T10:35:20.492Z,5.99
2016-12-29T10:37:27.712Z,6.08
2016-12-29T10:39:24.185Z,6.15
2016-12-29T10:41:31.576Z,6.22
2016-12-29T10:44:00.135Z,6.26
2016-12-29T10:46:09.058Z,6.32
2016-12-29T10:48:11.555Z,6.38
2016-12-29T10:50:17.190Z,6.48
2016-12-29T10:52:21.423Z,6.56
2016-12-29T10:54:25.781Z,6.63
2016-12-29T10:56:23.605Z,6.66
2016-12-29T10:57:56.889Z,6.7
2016-12-29T10:59:30.508Z,6.72
2016-12-29T11:01:06.081Z,6.74
2016-12-29T11:02:40.371Z,6.77
2016-12-29T11:04:13.924Z,6.8
2016-12-29T11:05:47.738Z,6.83
2016-12-29T11:07:16.304Z,6.84
2016-12-29T11:08:50.585Z,6.9
2016-12-29T11:10:24.388Z,6.94
2016-12-29T11:11:57.692Z,6.96
2016-12-29T11:13:31.469Z,6.98
2016-12-29T11:15:05.221Z,7.02
2016-12-29T11:16:38.642Z,7.04
2016-12-29T11:18:12.305Z,7.05
2016-12-29T11:19:46.024Z,7.07
2016-12-29T11:21:19.783Z,7.09
2016-12-29T11:22:53.585Z,7.12
2016-12-29T11:24:27.339Z,7.18
2016-12-29T11:26:01.153Z,7.19
2016-12-29T11:27:34.540Z,7.21
2016-12-29T11:29:03.333Z,7.24
2016-12-29T11:30:36.694Z,7.26
2016-12-29T11:32:09.967Z,7.26
2016-12-29T11:33:43.212Z,7.28
2016-12-29T11:35:16.801Z,7.31
2016-12-29T11:36:50.115Z,7.36
2016-12-29T11:38:23.703Z,7.38
2016-12-29T11:39:57.083Z,7.37
2016-12-29T11:41:31.725Z,7.39
2016-12-29T11:43:05.054Z,7.4
2016-12-29T11:44:38.366Z,7.42
2016-12-29T11:46:11.613Z,7.44
2016-12-29T11:48:04.483Z,7.47
2016-12-29T11:49:37.777Z,7.49
2016-12-29T11:51:11.317Z,7.49
2016-12-29T11:52:44.613Z,7.53
2016-12-29T11:54:18.229Z,7.58
2016-12-29T11:55:51.799Z,7.61
2016-12-29T11:57:25.470Z,7.62
2016-12-29T11:58:59.329Z,7.63
2016-12-29T12:00:32.617Z,7.63
2016-12-29T12:02:01.210Z,7.62
2016-12-29T12:03:39.358Z,7.63
2016-12-29T12:05:46.123Z,7.6
2016-12-29T12:08:15.174Z,7.58
2016-12-29T12:09:48.472Z,7.56
2016-12-29T12:11:26.023Z,7.54
2016-12-29T12:12:54.507Z,7.55
2016-12-29T12:14:27.950Z,7.6
2016-12-29T12:16:01.262Z,7.64
2016-12-29T12:17:35.226Z,7.67
2016-12-29T12:19:09.330Z,7.68
2016-12-29T12:20:42.667Z,7.71
2016-12-29T12:22:16.398Z,7.77
2016-12-29T12:23:50.010Z,7.82
2016-12-29T12:25:23.754Z,7.88
2016-12-29T12:27:26.046Z,7.94
2016-12-29T12:29:32.283Z,7.95
2016-12-29T12:31:33.846Z,7.93
2016-12-29T12:33:12.515Z,7.93
2016-12-29T12:35:12.946Z,7.97
2016-12-29T12:36:46.983Z,8.04
2016-12-29T12:38:20.317Z,8.09
2016-12-29T12:39:48.774Z,8.14
2016-12-29T12:41:25.169Z,8.18
2016-12-29T12:42:58.470Z,8.23
2016-12-29T12:44:31.833Z,8.31
2016-12-29T12:46:05.860Z,8.37
2016-12-29T12:47:39.168Z,8.42
2016-12-29T12:49:13.030Z,8.42
2016-12-29T12:51:03.808Z,8.44
